Time;durP1;ratioP1;P1;durP2;ratioP2;P2;SDS_P1;SDS_P2;PMS_P1;PMS_P2;Temp;Humidity;BMP_temperature;BMP_pressure;BME280_temperature;BME280_humidity;BME280_pressure;Samples;Min_cycle;Max_cycle;Signal;HPM_P1;HPM_P2
2022/01/21 00:02:38;;;;;;;7.63;1.93;;;;;;;-4.35;100.00;97103.31;10414204;28;20181;-61
2022/01/21 00:07:38;;;;;;;3.73;1.53;;;;;;;-4.41;100.00;97108.66;10414160;28;20239;-62
2022/01/21 00:12:39;;;;;;;6.33;1.47;;;;;;;-4.39;100.00;97124.75;10413957;28;20662;-62
2022/01/21 00:17:39;;;;;;;7.20;1.83;;;;;;;-4.40;100.00;97125.63;10413708;28;20266;-62
2022/01/21 00:33:17;;;;;;;9.17;2.03;;;;;;;-4.68;100.00;97141.13;10413344;28;20222;-61
2022/01/21 00:38:18;;;;;;;10.80;1.70;;;;;;;-4.86;100.00;97138.28;10411854;28;20196;-63
2022/01/21 00:43:29;;;;;;;12.63;1.60;;;;;;;-5.09;100.00;97148.41;10412847;28;20650;-62
2022/01/21 00:48:29;;;;;;;9.07;1.70;;;;;;;-5.15;100.00;97154.56;10413112;28;20198;-63
2022/01/21 00:53:30;;;;;;;9.90;1.83;;;;;;;-5.30;100.00;97166.09;10411008;28;20213;-61
2022/01/21 00:58:31;;;;;;;3.23;1.20;;;;;;;-5.44;100.00;97163.13;10411960;28;20192;-62
2022/01/21 01:03:31;;;;;;;5.50;1.70;;;;;;;-5.48;100.00;97180.28;10410568;28;20242;-61
2022/01/21 01:08:32;;;;;;;11.93;2.13;;;;;;;-5.54;100.00;97180.44;10410579;28;20179;-62
2022/01/21 01:29:13;;;;;;;9.93;1.60;;;;;;;-5.66;100.00;97208.88;10369632;28;20197;-61
2022/01/21 01:34:14;;;;;;;11.20;1.63;;;;;;;-5.73;100.00;97215.88;10370414;28;20672;-62
2022/01/21 01:39:28;;;;;;;3.63;1.40;;;;;;;-5.65;100.00;97220.75;10369054;28;20287;-62
2022/01/21 01:49:52;;;;;;;4.03;1.40;;;;;;;-5.40;100.00;97223.44;10375348;28;20290;-62
2022/01/21 01:54:55;;;;;;;4.47;1.47;;;;;;;-5.27;100.00;97219.63;10368733;28;20763;-63
2022/01/21 01:59:55;;;;;;;7.67;1.67;;;;;;;-5.17;100.00;97214.25;10369491;28;20220;-63
2022/01/21 02:04:55;;;;;;;7.67;1.47;;;;;;;-5.04;100.00;97218.94;10369326;28;20290;-63
2022/01/21 02:09:56;;;;;;;4.27;1.40;;;;;;;-5.00;100.00;97223.94;10368639;28;20195;-63
2022/01/21 02:14:59;;;;;;;6.73;1.53;;;;;;;-4.88;100.00;97228.66;10369527;28;20234;-62
2022/01/21 02:25:19;;;;;;;5.43;1.43;;;;;;;-4.87;100.00;97227.75;10367824;28;20328;-61
2022/01/21 02:30:22;;;;;;;6.43;1.67;;;;;;;-4.92;100.00;97234.75;10368272;28;20204;-62
2022/01/21 02:35:26;;;;;;;4.60;1.50;;;;;;;-4.87;100.00;97237.97;10367905;28;20208;-61
2022/01/21 02:40:27;;;;;;;5.87;1.20;;;;;;;-4.96;100.00;97228.91;10371929;28;20200;-62
2022/01/21 02:45:28;;;;;;;10.63;1.60;;;;;;;-4.94;100.00;97247.56;10376746;28;20232;-62
2022/01/21 02:50:28;;;;;;;9.47;1.97;;;;;;;-4.93;100.00;97249.25;10376177;28;20989;-62
2022/01/21 02:55:30;;;;;;;6.70;1.53;;;;;;;-4.81;100.00;97255.66;10375045;28;20216;-62
2022/01/21 03:00:30;;;;;;;11.27;2.20;;;;;;;-4.82;100.00;97245.50;10375661;28;20196;-63
2022/01/21 03:05:34;;;;;;;4.43;1.63;;;;;;;-4.81;100.00;97245.44;10374209;28;20264;-63
2022/01/21 03:10:34;;;;;;;6.03;1.40;;;;;;;-4.89;100.00;97260.19;10374555;28;20246;-62
2022/01/21 03:15:34;;;;;;;6.83;1.70;;;;;;;-4.79;100.00;97255.63;10373947;28;20225;-63
2022/01/21 03:20:35;;;;;;;4.77;1.30;;;;;;;-4.89;100.00;97247.41;10390684;28;20199;-62
2022/01/21 03:25:35;;;;;;;9.00;1.80;;;;;;;-4.98;100.00;97252.81;10373514;28;20220;-63
2022/01/21 03:30:37;;;;;;;2.47;1.20;;;;;;;-5.08;100.00;97263.31;10373656;28;20270;-63
2022/01/21 03:35:43;;;;;;;6.23;1.20;;;;;;;-5.15;100.00;97269.50;10373627;28;20200;-61
2022/01/21 03:40:45;;;;;;;7.03;1.43;;;;;;;-5.21;100.00;97269.66;10372975;28;20653;-62
2022/01/21 03:45:45;;;;;;;6.70;1.40;;;;;;;-5.39;100.00;97263.38;10373058;28;20378;-59
2022/01/21 03:50:46;;;;;;;2.73;1.40;;;;;;;-5.58;100.00;97275.84;10371828;28;20199;-63
2022/01/21 03:55:47;;;;;;;11.23;1.97;;;;;;;-5.76;100.00;97270.41;10372669;28;20230;-63
2022/01/21 04:00:50;;;;;;;4.10;1.47;;;;;;;-5.85;100.00;97277.44;10372205;28;20200;-63
2022/01/21 04:05:51;;;;;;;5.97;1.30;;;;;;;-5.87;100.00;97277.50;10376787;28;20707;-62
2022/01/21 04:10:52;;;;;;;6.90;1.60;;;;;;;-6.10;100.00;97294.25;10372215;28;20258;-63
2022/01/21 04:15:56;;;;;;;4.13;1.70;;;;;;;-6.15;100.00;97292.72;10371456;28;20216;-62
2022/01/21 04:20:56;;;;;;;2.93;1.47;;;;;;;-6.18;100.00;97291.09;10371732;28;20188;-63
2022/01/21 04:25:58;;;;;;;6.67;1.83;;;;;;;-6.25;100.00;97294.66;10387767;28;20788;-63
2022/01/21 04:30:58;;;;;;;4.33;1.53;;;;;;;-6.31;100.00;97310.09;10372986;28;20260;-63
2022/01/21 04:36:16;;;;;;;4.93;1.63;;;;;;;-6.31;100.00;97305.00;10375506;28;20570;-63
2022/01/21 04:41:36;;;;;;;8.80;1.73;;;;;;;-6.28;100.00;97310.03;10371530;28;20194;-63
2022/01/21 04:52:02;;;;;;;4.03;1.70;;;;;;;-6.40;100.00;97320.53;10371836;28;20196;-61
2022/01/21 04:57:09;;;;;;;5.77;1.90;;;;;;;-6.42;100.00;97329.94;10386507;28;20252;-63
2022/01/21 05:02:10;;;;;;;6.30;2.10;;;;;;;-6.51;100.00;97323.34;10370393;28;20197;-63
2022/01/21 05:07:14;;;;;;;10.47;2.30;;;;;;;-6.43;100.00;97326.56;10414355;22;20246;-64
2022/01/21 05:12:19;;;;;;;4.10;1.67;;;;;;;-6.60;100.00;97323.56;10410853;28;20189;-65
2022/01/21 05:17:19;;;;;;;9.33;1.93;;;;;;;-6.51;100.00;97325.91;10411084;28;20221;-64
2022/01/21 05:22:20;;;;;;;6.53;1.70;;;;;;;-6.47;100.00;97328.31;10427143;28;20660;-65
2022/01/21 05:27:25;;;;;;;6.27;2.00;;;;;;;-6.52;100.00;97327.63;10427471;28;20577;-62
2022/01/21 05:32:26;;;;;;;7.83;1.50;;;;;;;-6.61;100.00;97327.84;10427246;28;20186;-65
2022/01/21 05:37:37;;;;;;;3.60;1.30;;;;;;;-6.58;100.00;97332.84;10426852;28;20726;-65
2022/01/21 05:42:49;;;;;;;8.53;1.70;;;;;;;-6.55;100.00;97327.69;10426922;28;20316;-64
2022/01/21 05:48:08;;;;;;;3.67;1.30;;;;;;;-6.57;100.00;97316.69;10411909;28;20732;-64
2022/01/21 05:53:34;;;;;;;10.27;2.10;;;;;;;-6.54;100.00;97316.63;10411078;28;20229;-65
2022/01/21 05:58:54;;;;;;;7.83;2.00;;;;;;;-6.56;100.00;97326.00;10410832;28;20208;-64
2022/01/21 06:03:55;;;;;;;4.90;1.30;;;;;;;-6.43;100.00;97311.28;10411128;28;20561;-63
2022/01/21 06:08:55;;;;;;;7.33;1.60;;;;;;;-6.26;100.00;97308.31;10409727;28;20586;-64
2022/01/21 06:13:56;;;;;;;3.97;1.20;;;;;;;-6.31;99.71;97303.31;10410318;28;20216;-63
2022/01/21 06:18:56;;;;;;;7.77;1.90;;;;;;;-6.33;99.38;97306.78;10434275;28;20595;-62
2022/01/21 06:23:57;;;;;;;4.90;1.80;;;;;;;-6.33;99.89;97309.31;10418918;28;20200;-63
2022/01/21 06:28:57;;;;;;;12.07;2.50;;;;;;;-6.31;99.77;97312.66;10418744;28;20208;-64
2022/01/21 06:33:58;;;;;;;15.00;3.13;;;;;;;-6.30;99.53;97307.53;10418597;28;20222;-62
2022/01/21 06:38:58;;;;;;;6.00;2.20;;;;;;;-6.42;99.06;97307.00;10418337;28;20270;-62
2022/01/21 06:43:59;;;;;;;10.30;2.60;;;;;;;-6.34;99.26;97305.09;10418005;28;20211;-62
2022/01/21 06:48:59;;;;;;;6.77;2.00;;;;;;;-6.32;99.48;97313.56;10418136;28;20217;-62
2022/01/21 06:53:59;;;;;;;6.87;1.53;;;;;;;-6.40;100.00;97311.19;10417625;28;20274;-62
2022/01/21 06:59:00;;;;;;;10.97;1.97;;;;;;;-6.21;99.62;97314.13;10417026;28;20238;-61
2022/01/21 07:04:00;;;;;;;3.87;1.40;;;;;;;-6.08;99.90;97303.59;10417245;28;20192;-61
2022/01/21 07:09:01;;;;;;;7.03;1.40;;;;;;;-6.16;100.00;97312.28;10416768;28;20309;-62
2022/01/21 07:14:01;;;;;;;9.00;2.00;;;;;;;-6.19;100.00;97320.00;10416767;28;20222;-61
2022/01/21 07:19:02;;;;;;;7.33;1.83;;;;;;;-6.19;100.00;97324.28;10416664;28;20265;-63
2022/01/21 07:24:02;;;;;;;12.47;1.60;;;;;;;-6.13;100.00;97322.41;10416526;28;20189;-64
2022/01/21 07:29:03;;;;;;;6.53;1.70;;;;;;;-6.09;100.00;97328.28;10415312;28;20733;-61
2022/01/21 07:34:06;;;;;;;8.13;2.30;;;;;;;-5.99;100.00;97346.72;10415790;28;20570;-64
2022/01/21 07:39:06;;;;;;;7.10;1.93;;;;;;;-5.95;100.00;97333.00;10416018;28;20241;-62
2022/01/21 07:44:06;;;;;;;5.13;1.70;;;;;;;-5.94;100.00;97339.75;10415693;28;20289;-60
2022/01/21 07:49:07;;;;;;;10.70;2.23;;;;;;;-5.82;100.00;97336.03;10415560;28;20720;-59
2022/01/21 07:54:08;;;;;;;8.27;2.27;;;;;;;-5.68;100.00;97344.19;10415445;28;20220;-59
2022/01/21 07:59:11;;;;;;;6.67;2.00;;;;;;;-5.34;100.00;97348.38;10414572;28;20245;-61
2022/01/21 08:04:12;;;;;;;11.93;3.07;;;;;;;-5.29;100.00;97343.97;10415095;28;20210;-61
2022/01/21 08:09:13;;;;;;;13.93;3.10;;;;;;;-5.17;100.00;97342.78;10414577;28;20243;-62
2022/01/21 08:14:13;;;;;;;6.57;2.17;;;;;;;-5.06;100.00;97338.19;10414640;28;20693;-61
2022/01/21 08:19:14;;;;;;;8.87;2.23;;;;;;;-4.90;100.00;97348.81;10414723;28;20635;-61
2022/01/21 08:24:14;;;;;;;7.37;2.40;;;;;;;-4.83;100.00;97341.78;10414049;28;20673;-62
2022/01/21 08:29:14;;;;;;;16.07;2.87;;;;;;;-4.75;100.00;97339.81;10414225;28;20705;-59
2022/01/21 08:34:15;;;;;;;19.77;3.63;;;;;;;-4.55;100.00;97351.16;10413599;28;20738;-60
2022/01/21 08:39:16;;;;;;;14.03;2.40;;;;;;;-4.52;100.00;97356.19;10413297;28;20230;-63
2022/01/21 08:44:16;;;;;;;11.90;2.83;;;;;;;-4.41;100.00;97359.25;10413388;28;20552;-63
2022/01/21 08:49:19;;;;;;;8.07;3.60;;;;;;;-4.51;100.00;97353.56;10413092;28;20208;-63
2022/01/21 08:54:21;;;;;;;15.80;3.13;;;;;;;-4.22;100.00;97361.22;10413203;28;20224;-62
2022/01/21 08:59:22;;;;;;;12.07;2.97;;;;;;;-4.07;100.00;97347.06;10412064;28;20216;-63
2022/01/21 09:04:22;;;;;;;9.00;3.13;;;;;;;-4.12;100.00;97344.66;10412870;28;20219;-63
2022/01/21 09:09:24;;;;;;;10.00;4.10;;;;;;;-4.13;100.00;97358.38;10412384;28;20726;-62
2022/01/21 09:14:26;;;;;;;16.53;3.27;;;;;;;-4.01;100.00;97341.75;10410220;28;20272;-63
2022/01/21 09:19:28;;;;;;;20.53;4.97;;;;;;;-3.77;100.00;97348.63;10412471;28;20257;-65
2022/01/21 09:24:33;;;;;;;14.40;4.53;;;;;;;-3.87;100.00;97343.88;10411647;28;20684;-61
2022/01/21 09:29:34;;;;;;;7.10;3.07;;;;;;;-3.75;100.00;97340.91;10411833;28;20220;-62
2022/01/21 09:34:34;;;;;;;15.63;4.30;;;;;;;-3.54;100.00;97343.59;10410808;28;20247;-63
2022/01/21 09:39:35;;;;;;;17.70;4.83;;;;;;;-3.52;100.00;97346.91;10411896;28;20204;-65
2022/01/21 09:44:35;;;;;;;15.13;3.70;;;;;;;-3.48;100.00;97336.50;10411741;28;20192;-64
2022/01/21 09:49:40;;;;;;;20.60;3.70;;;;;;;-2.89;100.00;97335.22;10410316;28;20219;-65
2022/01/21 09:54:48;;;;;;;11.47;3.00;;;;;;;-2.22;100.00;97330.91;10410152;28;20698;-64
2022/01/21 09:59:52;;;;;;;18.77;4.27;;;;;;;-1.85;100.00;97324.25;10410592;28;20596;-64
2022/01/21 10:04:53;;;;;;;11.17;3.20;;;;;;;-2.55;100.00;97321.09;10410939;28;20188;-65
2022/01/21 10:09:54;;;;;;;14.37;3.13;;;;;;;-2.28;100.00;97314.91;10411128;28;20184;-65
2022/01/21 10:14:55;;;;;;;14.27;2.80;;;;;;;-2.16;100.00;97305.00;10410781;28;20220;-66
2022/01/21 10:20:11;;;;;;;12.83;2.50;;;;;;;-2.39;100.00;97298.25;10410780;28;20201;-65
2022/01/21 10:25:16;;;;;;;13.87;2.90;;;;;;;-2.41;100.00;97288.94;10410434;28;20601;-66
2022/01/21 10:30:24;;;;;;;6.90;3.10;;;;;;;-2.45;100.00;97302.78;10410742;28;20220;-64
2022/01/21 10:35:35;;;;;;;13.10;2.90;;;;;;;-2.47;100.00;97299.44;10410248;28;20225;-65
2022/01/21 10:40:35;;;;;;;12.70;3.17;;;;;;;-2.55;100.00;97298.00;10410583;28;20219;-65
2022/01/21 10:45:54;;;;;;;11.97;2.93;;;;;;;-2.51;100.00;97304.69;10410139;28;20240;-65
2022/01/21 10:51:14;;;;;;;8.63;2.60;;;;;;;-2.29;100.00;97303.81;10410237;28;20181;-65
2022/01/21 10:56:16;;;;;;;9.93;2.77;;;;;;;-2.27;100.00;97299.44;10409774;28;20232;-64
2022/01/21 11:01:21;;;;;;;11.37;3.47;;;;;;;-2.16;100.00;97307.56;10412179;28;20204;-64
2022/01/21 11:06:25;;;;;;;9.20;3.60;;;;;;;-1.95;100.00;97297.28;10433505;23;20241;-65
2022/01/21 11:11:25;;;;;;;10.47;3.70;;;;;;;-1.94;100.00;97298.97;10375873;28;20190;-65
2022/01/21 11:16:33;;;;;;;10.60;3.23;;;;;;;-2.05;100.00;97306.28;10376049;28;20229;-65
2022/01/21 11:21:45;;;;;;;12.67;4.07;;;;;;;-1.87;100.00;97310.66;10375715;28;20652;-66
2022/01/21 11:27:04;;;;;;;7.80;4.20;;;;;;;-1.68;100.00;97310.69;10375686;28;20213;-66
2022/01/21 11:32:05;;;;;;;12.20;4.17;;;;;;;-1.66;100.00;97303.75;10375525;28;20606;-66
2022/01/21 11:37:07;;;;;;;11.93;3.97;;;;;;;-1.67;100.00;97306.38;10375017;28;20263;-66
2022/01/21 11:42:07;;;;;;;9.73;3.43;;;;;;;-1.99;100.00;97306.00;10374802;28;20572;-66
2022/01/21 11:52:20;;;;;;;10.70;3.93;;;;;;;-1.91;100.00;97306.53;10373963;28;20189;-67
2022/01/21 11:57:30;;;;;;;12.40;4.10;;;;;;;-1.76;100.00;97294.78;10374002;28;20233;-66
2022/01/21 12:02:33;;;;;;;15.50;5.00;;;;;;;-1.59;100.00;97301.78;10373463;28;20193;-66
2022/01/21 12:07:36;;;;;;;7.50;3.70;;;;;;;-1.58;100.00;97300.84;10373395;28;20229;-64
2022/01/21 12:12:55;;;;;;;12.03;3.30;;;;;;;-1.40;100.00;97300.97;10372805;28;20197;-65
2022/01/21 12:18:33;;;;;;;15.60;3.60;;;;;;;-1.52;100.00;97300.56;10373443;28;20216;-66
2022/01/21 12:23:43;;;;;;;9.93;3.33;;;;;;;-1.03;100.00;97294.97;10373452;28;20280;-66
2022/01/21 12:29:12;;;;;;;7.47;3.17;;;;;;;-0.12;100.00;97288.09;10373325;28;20215;-66
2022/01/21 12:34:15;;;;;;;10.07;2.60;;;;;;;-0.12;100.00;97274.38;10370331;28;20264;-66
2022/01/21 12:39:46;;;;;;;7.90;2.87;;;;;;;-0.13;100.00;97276.13;10366710;28;21199;-66
2022/01/21 12:44:47;;;;;;;6.33;2.47;;;;;;;-0.68;100.00;97269.34;10366218;28;20197;-64
2022/01/21 12:49:53;;;;;;;6.80;2.00;;;;;;;-0.47;100.00;97282.13;10366142;28;20630;-65
2022/01/21 13:00:59;;;;;;;6.03;2.13;;;;;;;1.03;90.46;97224.56;10371855;28;20201;-65
2022/01/21 13:06:03;;;;;;;11.77;1.93;;;;;;;1.70;85.41;97174.31;10371464;28;20599;-67
2022/01/21 13:11:23;;;;;;;3.20;1.53;;;;;;;1.27;81.07;97149.25;10371557;28;20546;-66
2022/01/21 13:16:26;;;;;;;7.03;1.87;;;;;;;0.25;83.42;97190.09;10371353;28;20243;-67
2022/01/21 13:21:26;;;;;;;7.23;1.87;;;;;;;0.20;81.61;97162.00;10371348;28;20546;-66
2022/01/21 13:26:31;;;;;;;8.60;2.10;;;;;;;1.90;80.49;97155.91;10370085;28;20213;-68
2022/01/21 13:31:50;;;;;;;5.67;1.33;;;;;;;3.69;75.48;97100.59;10370880;28;20204;-68
2022/01/21 13:36:53;;;;;;;9.07;1.97;;;;;;;5.10;68.67;97020.59;10370688;28;20236;-69
2022/01/21 13:41:57;;;;;;;7.13;1.90;;;;;;;5.11;65.51;97007.50;10370907;28;20347;-69
2022/01/21 13:47:00;;;;;;;6.33;1.97;;;;;;;4.37;64.28;96991.34;10370428;28;20320;-71
2022/01/21 13:52:04;;;;;;;6.53;2.20;;;;;;;2.69;70.67;97107.13;10370549;28;20315;-68
2022/01/21 13:57:05;;;;;;;3.10;1.60;;;;;;;3.04;68.87;97094.50;10370367;28;20221;-70
2022/01/21 14:02:09;;;;;;;6.27;2.20;;;;;;;3.69;68.50;97099.75;10369939;28;20200;-70
2022/01/21 14:07:21;;;;;;;5.87;1.87;;;;;;;3.60;67.59;97090.00;10370328;28;20576;-70
2022/01/21 14:12:21;;;;;;;6.47;1.70;;;;;;;2.90;68.84;97107.53;10370755;28;20185;-69
2022/01/21 14:17:25;;;;;;;8.07;1.80;;;;;;;2.57;69.06;97119.06;10370733;28;20229;-69
2022/01/21 14:22:25;;;;;;;9.23;2.30;;;;;;;0.81;72.81;97168.16;10352895;28;20181;-68
2022/01/21 14:27:30;;;;;;;9.53;2.83;;;;;;;0.33;77.35;97249.78;10370352;28;20213;-69
2022/01/21 14:32:39;;;;;;;5.37;2.13;;;;;;;0.29;79.79;97274.03;10369704;28;20199;-69
2022/01/21 14:37:42;;;;;;;8.03;1.97;;;;;;;0.53;78.91;97264.22;10374556;28;20329;-69
2022/01/21 14:42:43;;;;;;;10.93;2.33;;;;;;;0.55;77.33;97223.69;10377324;28;20663;-69
2022/01/21 14:47:45;;;;;;;4.13;1.93;;;;;;;-0.28;78.21;97235.69;10375553;28;20212;-68
2022/01/21 14:52:55;;;;;;;4.73;2.10;;;;;;;-1.21;82.55;97317.25;10376907;28;20193;-69
2022/01/21 14:58:16;;;;;;;6.83;1.90;;;;;;;-1.89;84.93;97332.97;10376618;28;20687;-68
2022/01/21 15:03:25;;;;;;;6.40;2.10;;;;;;;-2.29;86.63;97355.16;10376343;28;20196;-69
2022/01/21 15:08:36;;;;;;;10.20;1.97;;;;;;;-2.59;88.98;97355.47;10376045;28;20287;-69
2022/01/21 15:18:56;;;;;;;11.17;3.00;;;;;;;-3.00;95.05;97342.50;10375797;28;20658;-69
2022/01/21 15:23:57;;;;;;;6.83;2.27;;;;;;;-3.04;96.40;97340.94;10375595;28;20220;-68
2022/01/21 15:29:05;;;;;;;8.37;1.93;;;;;;;-3.13;97.83;97339.53;10375294;28;20209;-68
2022/01/21 15:34:08;;;;;;;11.03;1.83;;;;;;;-3.33;97.95;97330.00;10375489;28;20217;-68
2022/01/21 15:39:08;;;;;;;4.97;1.70;;;;;;;-3.33;97.76;97327.44;10374755;28;20216;-68
2022/01/21 15:44:08;;;;;;;3.83;1.73;;;;;;;-3.30;96.83;97313.69;10374925;28;20674;-68
2022/01/21 15:49:11;;;;;;;6.50;2.03;;;;;;;-3.39;96.74;97308.91;10373568;28;20205;-68
2022/01/21 15:54:12;;;;;;;12.93;2.20;;;;;;;-3.54;98.26;97326.47;10374161;28;20616;-68
2022/01/21 15:59:13;;;;;;;9.17;2.57;;;;;;;-3.47;98.39;97327.13;10373980;28;20209;-68
2022/01/21 16:04:15;;;;;;;9.20;2.30;;;;;;;-3.45;100.00;97338.97;10373767;28;20557;-68
2022/01/21 16:09:16;;;;;;;4.67;2.47;;;;;;;-3.42;100.00;97340.59;10373885;28;20261;-68
2022/01/21 16:14:16;;;;;;;5.83;2.40;;;;;;;-3.48;100.00;97339.06;10373358;28;21341;-67
2022/01/21 16:19:17;;;;;;;5.67;2.20;;;;;;;-3.53;100.00;97350.38;10373283;28;20223;-68
2022/01/21 16:24:18;;;;;;;5.87;2.00;;;;;;;-3.50;100.00;97348.53;10373303;28;20196;-68
2022/01/21 16:29:19;;;;;;;8.10;2.97;;;;;;;-3.45;100.00;97335.56;10372794;28;20209;-68
2022/01/21 16:34:20;;;;;;;8.67;4.37;;;;;;;-3.41;100.00;97347.38;10372966;28;20586;-68
2022/01/21 16:39:20;;;;;;;58.43;18.10;;;;;;;-3.34;100.00;97353.13;10372558;28;20846;-68
2022/01/21 16:44:21;;;;;;;7.17;2.10;;;;;;;-3.23;100.00;97348.47;10372481;28;20185;-68
2022/01/21 16:49:21;;;;;;;8.67;2.33;;;;;;;-3.16;100.00;97357.56;10372262;28;20286;-68
2022/01/21 16:54:21;;;;;;;11.03;2.80;;;;;;;-3.11;100.00;97355.69;10371986;28;20228;-68
2022/01/21 16:59:23;;;;;;;9.03;2.43;;;;;;;-3.01;100.00;97365.63;10371327;28;20228;-68
2022/01/21 17:04:25;;;;;;;12.10;4.63;;;;;;;-2.99;100.00;97368.94;10371652;28;20204;-68
2022/01/21 17:09:25;;;;;;;7.03;2.70;;;;;;;-2.88;100.00;97371.94;10410055;22;20231;-61
2022/01/21 17:14:25;;;;;;;7.17;3.47;;;;;;;-2.85;100.00;97373.56;10411968;28;20212;-64
2022/01/21 17:19:26;;;;;;;13.87;6.37;;;;;;;-2.87;100.00;97378.75;10412517;28;20678;-61
2022/01/21 17:24:27;;;;;;;8.53;2.87;;;;;;;-2.79;100.00;97378.47;10411967;28;20189;-64
2022/01/21 17:29:27;;;;;;;6.37;2.83;;;;;;;-2.79;100.00;97376.72;10411823;28;20594;-65
2022/01/21 17:34:28;;;;;;;5.10;2.63;;;;;;;-2.72;100.00;97367.91;10411856;28;20224;-65
2022/01/21 17:39:28;;;;;;;10.70;2.67;;;;;;;-2.75;100.00;97370.59;10411525;28;20216;-65
2022/01/21 17:44:30;;;;;;;10.67;3.20;;;;;;;-2.83;100.00;97374.31;10411622;28;20185;-64
2022/01/21 17:49:30;;;;;;;7.90;3.67;;;;;;;-2.79;100.00;97368.19;10411315;28;20205;-63
2022/01/21 17:54:31;;;;;;;12.00;6.17;;;;;;;-2.87;100.00;97366.75;10411209;28;20216;-63
2022/01/21 17:59:31;;;;;;;9.93;3.47;;;;;;;-2.78;100.00;97357.06;10410774;28;20220;-63
2022/01/21 18:04:32;;;;;;;9.43;3.37;;;;;;;-2.81;100.00;97365.69;10411021;28;20204;-64
2022/01/21 18:09:37;;;;;;;7.57;4.60;;;;;;;-2.77;100.00;97364.69;10411138;28;20306;-64
2022/01/21 18:14:37;;;;;;;9.63;4.33;;;;;;;-2.70;100.00;97370.41;10419380;28;20226;-64
2022/01/21 18:19:45;;;;;;;11.57;5.13;;;;;;;-2.66;100.00;97366.84;10419472;28;20358;-63
2022/01/21 18:24:46;;;;;;;5.33;3.23;;;;;;;-2.65;100.00;97373.63;10419224;28;20192;-65
2022/01/21 18:29:46;;;;;;;12.80;4.10;;;;;;;-2.61;100.00;97362.38;10418512;28;20253;-61
2022/01/21 18:34:47;;;;;;;5.90;3.43;;;;;;;-2.51;100.00;97350.88;10418800;28;20311;-62
2022/01/21 18:39:48;;;;;;;13.50;4.23;;;;;;;-2.56;100.00;97349.38;10418269;28;20216;-63
2022/01/21 18:45:02;;;;;;;13.03;4.80;;;;;;;-2.51;100.00;97339.78;10417999;28;20193;-65
2022/01/21 18:50:02;;;;;;;12.03;5.17;;;;;;;-2.43;100.00;97342.03;10418019;28;20291;-64
2022/01/21 18:55:03;;;;;;;14.67;5.20;;;;;;;-2.36;100.00;97339.19;10417916;28;20299;-64
2022/01/21 19:00:05;;;;;;;12.37;4.23;;;;;;;-2.22;100.00;97345.47;10417211;28;20217;-63
2022/01/21 19:05:10;;;;;;;9.90;4.70;;;;;;;-2.15;100.00;97342.59;10416293;28;20276;-66
2022/01/21 19:10:16;;;;;;;8.30;4.13;;;;;;;-2.06;100.00;97345.69;10417140;28;21068;-64
2022/01/21 19:15:18;;;;;;;7.53;4.27;;;;;;;-2.10;100.00;97347.53;10416856;28;20226;-64
2022/01/21 19:20:21;;;;;;;12.83;3.97;;;;;;;-2.05;100.00;97345.63;10416924;28;20204;-64
2022/01/21 19:25:37;;;;;;;9.07;3.70;;;;;;;-2.02;100.00;97340.38;10416494;28;20196;-62
2022/01/21 19:30:39;;;;;;;6.97;3.70;;;;;;;-1.88;100.00;97344.94;10416275;28;20208;-62
2022/01/21 19:35:40;;;;;;;11.43;3.97;;;;;;;-1.89;100.00;97339.84;10416301;28;20228;-64
2022/01/21 19:40:41;;;;;;;15.07;3.63;;;;;;;-1.87;100.00;97346.59;10415899;28;20231;-61
2022/01/21 19:45:44;;;;;;;14.43;4.00;;;;;;;-1.84;100.00;97338.78;10415945;28;20189;-63
2022/01/21 19:50:45;;;;;;;10.93;3.70;;;;;;;-1.69;100.00;97324.44;10415676;28;20278;-64
2022/01/21 19:55:46;;;;;;;11.80;3.93;;;;;;;-1.59;100.00;97319.75;10415474;28;20631;-63
2022/01/21 20:11:47;;;;;;;13.27;3.93;;;;;;;-1.54;100.00;97309.28;10414687;28;20237;-64
2022/01/21 20:16:48;;;;;;;9.73;2.57;;;;;;;-1.44;100.00;97298.53;10414739;28;20240;-63
2022/01/21 20:21:49;;;;;;;11.57;3.47;;;;;;;-1.44;100.00;97298.53;10414481;28;20243;-65
2022/01/21 20:26:51;;;;;;;15.40;3.97;;;;;;;-1.59;100.00;97283.78;10414242;28;20234;-64
2022/01/21 20:31:53;;;;;;;8.30;2.77;;;;;;;-1.54;100.00;97302.38;10414004;28;20224;-63
2022/01/21 20:37:00;;;;;;;13.70;3.93;;;;;;;-1.49;100.00;97284.19;10413432;28;20588;-64
2022/01/21 20:42:04;;;;;;;7.00;4.13;;;;;;;-1.56;100.00;97275.94;10413734;28;20235;-63
2022/01/21 20:47:06;;;;;;;10.67;4.20;;;;;;;-1.52;100.00;97267.19;10413322;28;20185;-65
2022/01/21 20:52:07;;;;;;;10.37;4.77;;;;;;;-1.55;100.00;97262.19;10413514;28;20253;-64
2022/01/21 20:57:08;;;;;;;13.33;4.77;;;;;;;-1.45;100.00;97252.34;10412893;28;20221;-62
2022/01/21 21:02:08;;;;;;;12.07;5.17;;;;;;;-1.37;100.00;97257.13;10412322;28;20577;-62
2022/01/21 21:07:09;;;;;;;11.67;4.50;;;;;;;-1.24;100.00;97259.97;10412771;28;20662;-63
2022/01/21 21:12:11;;;;;;;10.13;4.33;;;;;;;-1.21;100.00;97247.84;10412135;28;20293;-63
2022/01/21 21:27:43;;;;;;;10.23;5.00;;;;;;;-1.20;100.00;97203.22;10412056;28;20650;-64
2022/01/21 22:16:25;;;;;;;12.30;6.10;;;;;;;-0.83;100.00;97121.72;10409378;28;20310;-64
2022/01/21 22:27:13;;;;;;;8.67;5.10;;;;;;;-0.67;100.00;97105.53;10409282;28;20189;-64
2022/01/21 22:44:42;;;;;;;8.80;4.53;;;;;;;-0.63;100.00;97091.59;10408738;28;20217;-66
2022/01/21 23:03:12;;;;;;;3.90;3.50;;;;;;;-0.49;100.00;97058.28;10414794;28;20271;-65
2022/01/21 23:08:14;;;;;;;4.37;3.70;;;;;;;-0.49;100.00;97060.03;10380655;28;992659;-66
2022/01/21 23:13:14;;;;;;;4.27;3.33;;;;;;;-0.44;100.00;97064.03;10407988;22;20252;-67
2022/01/21 23:18:15;;;;;;;3.90;3.50;;;;;;;-0.42;100.00;97056.22;10376056;28;20213;-67
2022/01/21 23:23:16;;;;;;;5.03;3.87;;;;;;;-0.40;100.00;97062.97;10375450;28;20228;-68
2022/01/21 23:28:19;;;;;;;3.67;3.23;;;;;;;-0.30;100.00;97065.06;10375713;28;20565;-67
2022/01/21 23:33:26;;;;;;;3.60;2.77;;;;;;;-0.30;100.00;97052.19;10375276;28;20687;-69
2022/01/21 23:43:47;;;;;;;2.97;2.10;;;;;;;-0.32;100.00;97043.69;10363696;28;20236;-69
2022/01/21 23:48:52;;;;;;;2.17;1.97;;;;;;;-0.36;100.00;97037.88;10375008;28;20200;-69
2022/01/21 23:53:52;;;;;;;1.97;1.87;;;;;;;-0.38;100.00;97032.00;10373175;28;20209;-69
2022/01/21 23:58:52;;;;;;;1.77;1.67;;;;;;;-0.31;100.00;97025.59;10373989;28;20201;-68
